Time;durP1;ratioP1;P1;durP2;ratioP2;P2;SDS_P1;SDS_P2;PMS_P1;PMS_P2;Temp;Humidity;BMP_temperature;BMP_pressure;BME280_temperature;BME280_humidity;BME280_pressure;Samples;Min_cycle;Max_cycle;Signal;HPM_P1;HPM_P2
2023/07/02 00:02:07;;;;;;;10.05;3.83;;;;;;;;;;4935404;28;20214;-61
2023/07/02 00:04:32;;;;;;;14.25;4.53;;;;;;;;;;4939104;28;20285;-61
2023/07/02 00:06:57;;;;;;;12.13;3.95;;;;;;;;;;4943523;28;20274;-61
2023/07/02 00:09:23;;;;;;;12.98;4.30;;;;;;;;;;4942903;28;20214;-62
2023/07/02 00:11:48;;;;;;;9.60;3.92;;;;;;;;;;4962192;28;20230;-61
2023/07/02 00:14:13;;;;;;;14.55;4.82;;;;;;;;;;4961899;28;20667;-61
2023/07/02 00:16:41;;;;;;;10.93;4.53;;;;;;;;;;4944777;28;20676;-61
2023/07/02 00:19:06;;;;;;;11.73;4.70;;;;;;;;;;4941289;28;20242;-61
2023/07/02 00:21:33;;;;;;;11.70;4.50;;;;;;;;;;4936198;28;20257;-61
2023/07/02 00:23:58;;;;;;;12.50;4.63;;;;;;;;;;4954089;28;20292;-61
2023/07/02 00:26:24;;;;;;;15.43;4.95;;;;;;;;;;4955174;28;20332;-62
2023/07/02 00:28:50;;;;;;;11.93;5.00;;;;;;;;;;4961863;28;20249;-61
2023/07/02 00:31:15;;;;;;;14.73;5.70;;;;;;;;;;4960737;28;20272;-61
2023/07/02 00:33:41;;;;;;;16.55;6.30;;;;;;;;;;4962120;28;20222;-61
2023/07/02 00:36:06;;;;;;;17.50;5.55;;;;;;;;;;4961467;28;20756;-61
2023/07/02 00:38:31;;;;;;;14.32;5.97;;;;;;;;;;4947221;28;20813;-61
2023/07/02 00:40:57;;;;;;;15.25;6.10;;;;;;;;;;4942695;28;20762;-61
2023/07/02 00:43:22;;;;;;;14.15;6.63;;;;;;;;;;4954793;28;20268;-61
2023/07/02 00:45:48;;;;;;;17.52;7.03;;;;;;;;;;4969048;28;20210;-61
2023/07/02 00:48:13;;;;;;;17.75;7.43;;;;;;;;;;4971112;28;20217;-61
2023/07/02 00:50:39;;;;;;;17.45;6.80;;;;;;;;;;4971206;28;20217;-61
2023/07/02 00:53:04;;;;;;;18.23;7.93;;;;;;;;;;4970507;28;20305;-61
2023/07/02 00:55:29;;;;;;;20.55;7.82;;;;;;;;;;4971228;28;20296;-64
2023/07/02 00:57:56;;;;;;;16.92;8.05;;;;;;;;;;4960180;28;20257;-64
2023/07/02 01:00:22;;;;;;;18.02;7.28;;;;;;;;;;4950877;29;20210;-64
2023/07/02 01:02:57;;;;;;;13.25;6.97;;;;;;;;;;4952010;29;20222;-63
2023/07/02 01:05:23;;;;;;;20.52;7.20;;;;;;;;;;4951012;29;20304;-62
2023/07/02 01:07:49;;;;;;;17.90;7.70;;;;;;;;;;4951500;29;20862;-62
2023/07/02 01:10:14;;;;;;;14.88;6.35;;;;;;;;;;4968482;28;20800;-62
2023/07/02 01:12:39;;;;;;;16.30;6.88;;;;;;;;;;4970292;28;20727;-63
2023/07/02 01:15:05;;;;;;;13.73;6.40;;;;;;;;;;4970240;28;20345;-62
2023/07/02 01:17:37;;;;;;;17.25;6.63;;;;;;;;;;4970961;28;20264;-62
2023/07/02 01:20:02;;;;;;;16.27;6.25;;;;;;;;;;4953598;28;20202;-63
2023/07/02 01:22:28;;;;;;;17.63;6.85;;;;;;;;;;4953723;28;20225;-62
2023/07/02 01:24:53;;;;;;;16.48;7.55;;;;;;;;;;4971150;28;20210;-62
2023/07/02 01:27:19;;;;;;;15.80;6.72;;;;;;;;;;4969620;28;20864;-62
2023/07/02 01:29:46;;;;;;;18.02;6.75;;;;;;;;;;4970877;28;20238;-62
2023/07/02 01:32:12;;;;;;;18.58;6.40;;;;;;;;;;4970301;28;20284;-62
2023/07/02 01:34:37;;;;;;;16.10;6.68;;;;;;;;;;4969887;28;20217;-62
2023/07/02 01:37:03;;;;;;;19.23;6.90;;;;;;;;;;4970399;28;20216;-61
2023/07/02 01:39:28;;;;;;;16.50;6.60;;;;;;;;;;4970902;28;20220;-61
2023/07/02 01:41:54;;;;;;;18.50;7.57;;;;;;;;;;4970274;28;20280;-61
2023/07/02 01:44:20;;;;;;;15.88;7.05;;;;;;;;;;4970448;28;20293;-61
2023/07/02 01:46:48;;;;;;;13.85;6.47;;;;;;;;;;4970137;28;20221;-62
2023/07/02 01:49:14;;;;;;;13.65;7.07;;;;;;;;;;4969549;28;20743;-62
2023/07/02 01:51:39;;;;;;;13.75;6.47;;;;;;;;;;4943543;28;20230;-62
2023/07/02 01:54:04;;;;;;;15.40;7.10;;;;;;;;;;4935482;28;20210;-61
2023/07/02 01:56:30;;;;;;;15.57;6.38;;;;;;;;;;4944867;28;20680;-62
2023/07/02 01:58:55;;;;;;;17.48;7.10;;;;;;;;;;4957155;28;20585;-62
2023/07/02 02:01:20;;;;;;;13.50;6.60;;;;;;;;;;4959946;28;20894;-62
2023/07/02 02:03:46;;;;;;;14.65;7.07;;;;;;;;;;4960273;28;20220;-62
2023/07/02 02:06:11;;;;;;;17.20;6.45;;;;;;;;;;4960471;28;20226;-63
2023/07/02 02:08:37;;;;;;;17.10;6.75;;;;;;;;;;4948053;28;20333;-63
2023/07/02 02:11:02;;;;;;;17.70;7.13;;;;;;;;;;4937050;28;20532;-62
2023/07/02 02:13:27;;;;;;;17.70;7.10;;;;;;;;;;4934735;28;20217;-63
2023/07/02 02:15:53;;;;;;;21.25;7.75;;;;;;;;;;4934314;28;20241;-63
2023/07/02 02:18:19;;;;;;;15.85;7.25;;;;;;;;;;4955834;28;20308;-63
2023/07/02 02:20:44;;;;;;;20.33;7.10;;;;;;;;;;4945024;28;20343;-63
2023/07/02 02:23:09;;;;;;;16.75;6.78;;;;;;;;;;4940648;28;20321;-62
2023/07/02 02:25:35;;;;;;;12.88;6.90;;;;;;;;;;4941836;28;20243;-63
2023/07/02 02:28:00;;;;;;;17.63;6.70;;;;;;;;;;4943710;28;20595;-62
2023/07/02 02:30:25;;;;;;;17.25;6.78;;;;;;;;;;4944701;28;20238;-62
2023/07/02 02:32:51;;;;;;;16.05;7.22;;;;;;;;;;4943823;28;20234;-63
2023/07/02 02:35:16;;;;;;;16.10;8.00;;;;;;;;;;4937626;28;20221;-62
2023/07/02 02:37:41;;;;;;;13.98;6.93;;;;;;;;;;4937076;28;20218;-63
2023/07/02 02:40:09;;;;;;;17.83;6.95;;;;;;;;;;4948867;28;20214;-62
2023/07/02 02:42:34;;;;;;;14.45;6.57;;;;;;;;;;4963786;28;20260;-63
2023/07/02 02:44:59;;;;;;;15.52;6.47;;;;;;;;;;4963721;28;20222;-62
2023/07/02 02:47:25;;;;;;;19.45;7.72;;;;;;;;;;4947885;28;20245;-62
2023/07/02 02:49:50;;;;;;;16.70;7.63;;;;;;;;;;4966704;28;20304;-63
2023/07/02 02:52:16;;;;;;;16.33;7.53;;;;;;;;;;4954622;28;20719;-63
2023/07/02 02:54:41;;;;;;;18.73;7.88;;;;;;;;;;4972498;28;20913;-62
2023/07/02 02:57:06;;;;;;;16.27;7.82;;;;;;;;;;4972842;28;20238;-61
2023/07/02 02:59:32;;;;;;;17.10;7.80;;;;;;;;;;4971715;28;20414;-63
2023/07/02 03:01:57;;;;;;;14.65;7.60;;;;;;;;;;4973087;28;20283;-63
2023/07/02 03:04:24;;;;;;;17.90;7.30;;;;;;;;;;4970468;28;20226;-63
2023/07/02 03:06:50;;;;;;;16.05;7.05;;;;;;;;;;4970051;28;20209;-63
2023/07/02 03:09:15;;;;;;;15.93;7.45;;;;;;;;;;4972654;28;20590;-62
2023/07/02 03:11:41;;;;;;;19.45;7.50;;;;;;;;;;4973340;28;20234;-63
2023/07/02 03:14:06;;;;;;;17.50;7.30;;;;;;;;;;4970803;28;20436;-62
2023/07/02 03:16:33;;;;;;;19.95;7.50;;;;;;;;;;4973092;28;20206;-62
2023/07/02 03:18:59;;;;;;;15.68;7.68;;;;;;;;;;4972830;28;20217;-62
2023/07/02 03:21:24;;;;;;;15.80;7.35;;;;;;;;;;4972011;28;20214;-62
2023/07/02 03:23:49;;;;;;;21.25;8.30;;;;;;;;;;4972922;28;20226;-62
2023/07/02 03:26:14;;;;;;;17.35;8.05;;;;;;;;;;4972078;28;20213;-62
2023/07/02 03:28:40;;;;;;;18.15;8.10;;;;;;;;;;4972253;28;20221;-62
2023/07/02 03:31:05;;;;;;;14.68;7.30;;;;;;;;;;4972038;28;20240;-62
2023/07/02 03:33:31;;;;;;;17.75;8.05;;;;;;;;;;4972272;28;20218;-62
2023/07/02 03:35:57;;;;;;;19.45;8.05;;;;;;;;;;4973072;28;20218;-62
2023/07/02 03:38:22;;;;;;;19.15;8.30;;;;;;;;;;4971538;28;20583;-61
2023/07/02 03:40:47;;;;;;;19.13;8.27;;;;;;;;;;4972174;28;20277;-62
2023/07/02 03:43:13;;;;;;;21.67;8.10;;;;;;;;;;4971049;28;20305;-62
2023/07/02 03:45:38;;;;;;;17.48;8.18;;;;;;;;;;4972258;28;20240;-62
2023/07/02 03:48:03;;;;;;;18.17;7.85;;;;;;;;;;4971557;28;20218;-61
2023/07/02 03:50:29;;;;;;;22.10;8.20;;;;;;;;;;4972150;28;20216;-62
2023/07/02 03:52:54;;;;;;;18.50;7.90;;;;;;;;;;4971070;28;20230;-63
2023/07/02 03:55:20;;;;;;;19.95;7.60;;;;;;;;;;4971350;28;20218;-62
2023/07/02 03:57:45;;;;;;;18.13;8.27;;;;;;;;;;4958886;28;20218;-62
2023/07/02 04:00:11;;;;;;;17.30;7.78;;;;;;;;;;4957670;28;20210;-61
2023/07/02 04:02:36;;;;;;;16.77;7.22;;;;;;;;;;4952408;29;20310;-61
2023/07/02 04:05:02;;;;;;;23.58;8.30;;;;;;;;;;4952410;29;20222;-61
2023/07/02 04:07:28;;;;;;;17.95;7.85;;;;;;;;;;4952640;29;20227;-61
2023/07/02 04:09:53;;;;;;;19.17;8.10;;;;;;;;;;4966635;28;20210;-61
2023/07/02 04:12:18;;;;;;;16.10;7.97;;;;;;;;;;4971989;28;20222;-61
2023/07/02 04:14:44;;;;;;;18.30;8.32;;;;;;;;;;4971770;28;20209;-62
2023/07/02 04:17:09;;;;;;;20.17;8.35;;;;;;;;;;4971119;28;20221;-62
2023/07/02 04:19:34;;;;;;;21.73;8.23;;;;;;;;;;4972071;28;20213;-61
2023/07/02 04:22:00;;;;;;;18.27;8.48;;;;;;;;;;4972132;28;20225;-62
2023/07/02 04:24:26;;;;;;;22.02;8.40;;;;;;;;;;4970949;28;20217;-62
2023/07/02 04:26:51;;;;;;;19.58;8.05;;;;;;;;;;4972067;28;20214;-62
2023/07/02 04:29:17;;;;;;;18.33;8.10;;;;;;;;;;4970915;28;20316;-62
2023/07/02 04:31:42;;;;;;;22.73;8.55;;;;;;;;;;4971173;28;20222;-62
2023/07/02 04:34:07;;;;;;;20.77;8.48;;;;;;;;;;4971472;28;20214;-62
2023/07/02 04:36:33;;;;;;;17.23;7.63;;;;;;;;;;4971642;28;20236;-62
2023/07/02 04:38:58;;;;;;;21.88;8.52;;;;;;;;;;4969090;28;20297;-62
2023/07/02 04:41:23;;;;;;;16.08;8.02;;;;;;;;;;4971181;28;20237;-62
2023/07/02 04:43:48;;;;;;;20.98;8.05;;;;;;;;;;4971067;28;20234;-62
2023/07/02 04:46:14;;;;;;;18.70;8.10;;;;;;;;;;4970661;28;20381;-62
2023/07/02 04:48:39;;;;;;;16.85;7.93;;;;;;;;;;4971643;28;20272;-62
2023/07/02 04:51:04;;;;;;;16.40;8.38;;;;;;;;;;4970044;28;20222;-61
2023/07/02 04:53:30;;;;;;;20.77;8.25;;;;;;;;;;4971280;28;20210;-62
2023/07/02 04:55:57;;;;;;;17.23;7.88;;;;;;;;;;4971042;28;20671;-62
2023/07/02 04:58:22;;;;;;;22.25;8.93;;;;;;;;;;4970467;28;20213;-62
2023/07/02 05:00:48;;;;;;;18.88;8.27;;;;;;;;;;4970873;28;20637;-62
2023/07/02 05:03:13;;;;;;;18.80;7.65;;;;;;;;;;4970497;28;20744;-62
2023/07/02 05:05:38;;;;;;;22.98;8.20;;;;;;;;;;4953357;28;20227;-62
2023/07/02 05:08:04;;;;;;;23.95;8.35;;;;;;;;;;4970824;28;20305;-61
2023/07/02 05:10:29;;;;;;;18.75;7.82;;;;;;;;;;4971149;28;20232;-62
2023/07/02 05:12:55;;;;;;;20.27;8.73;;;;;;;;;;4970646;28;20316;-63
2023/07/02 05:15:20;;;;;;;16.77;7.80;;;;;;;;;;4970522;28;20244;-62
2023/07/02 05:17:45;;;;;;;18.95;7.38;;;;;;;;;;4970783;28;20297;-62
2023/07/02 05:20:11;;;;;;;20.50;8.40;;;;;;;;;;4970124;28;20237;-62
2023/07/02 05:22:36;;;;;;;22.70;8.18;;;;;;;;;;4971040;28;20213;-62
2023/07/02 05:25:02;;;;;;;16.42;7.30;;;;;;;;;;4970356;28;20237;-62
2023/07/02 05:27:27;;;;;;;20.90;7.97;;;;;;;;;;4970355;28;20253;-62
2023/07/02 05:29:52;;;;;;;17.70;7.57;;;;;;;;;;4970741;28;20252;-63
2023/07/02 05:32:17;;;;;;;21.98;7.78;;;;;;;;;;4969844;28;20284;-63
2023/07/02 05:34:43;;;;;;;22.35;8.30;;;;;;;;;;4970380;28;20228;-62
2023/07/02 05:37:08;;;;;;;19.15;7.60;;;;;;;;;;4970216;28;20197;-62
2023/07/02 05:39:34;;;;;;;22.40;7.75;;;;;;;;;;4970449;28;20692;-62
2023/07/02 05:41:59;;;;;;;21.38;8.10;;;;;;;;;;4970112;28;20249;-62
2023/07/02 05:44:24;;;;;;;19.52;7.72;;;;;;;;;;4970481;28;20209;-62
2023/07/02 05:46:50;;;;;;;21.25;8.45;;;;;;;;;;4970469;28;20217;-62
2023/07/02 05:49:15;;;;;;;21.25;7.80;;;;;;;;;;4969825;28;20218;-62
2023/07/02 05:51:40;;;;;;;15.60;7.68;;;;;;;;;;4970552;28;20587;-62
2023/07/02 05:54:06;;;;;;;19.92;8.65;;;;;;;;;;4969341;28;20210;-62
2023/07/02 05:56:31;;;;;;;21.25;8.07;;;;;;;;;;4970787;28;20579;-62
2023/07/02 05:58:56;;;;;;;19.50;8.25;;;;;;;;;;4970459;28;20246;-62
2023/07/02 06:01:22;;;;;;;20.23;8.10;;;;;;;;;;4969667;28;20217;-62
2023/07/02 06:03:49;;;;;;;22.45;8.95;;;;;;;;;;4974242;28;20232;-62
2023/07/02 06:06:14;;;;;;;24.00;8.15;;;;;;;;;;4973593;28;20217;-62
2023/07/02 06:08:39;;;;;;;21.92;8.38;;;;;;;;;;4973880;28;20210;-62
2023/07/02 06:11:05;;;;;;;21.17;7.97;;;;;;;;;;4973664;28;20217;-62
2023/07/02 06:13:30;;;;;;;22.50;8.23;;;;;;;;;;4973957;28;20297;-62
2023/07/02 06:15:55;;;;;;;23.52;8.25;;;;;;;;;;4973406;28;20222;-62
2023/07/02 06:18:21;;;;;;;20.27;8.57;;;;;;;;;;4973586;28;20225;-62
2023/07/02 06:20:46;;;;;;;23.63;8.50;;;;;;;;;;4974210;28;20218;-62
2023/07/02 06:23:11;;;;;;;20.13;8.30;;;;;;;;;;4973083;28;20245;-62
2023/07/02 06:25:36;;;;;;;22.30;8.18;;;;;;;;;;4974064;28;20217;-62
2023/07/02 06:28:02;;;;;;;22.45;7.82;;;;;;;;;;4973194;28;20281;-62
2023/07/02 06:30:27;;;;;;;18.65;7.40;;;;;;;;;;4973466;28;20238;-62
2023/07/02 06:32:53;;;;;;;18.25;7.80;;;;;;;;;;4973917;28;20233;-62
2023/07/02 06:35:18;;;;;;;23.13;8.20;;;;;;;;;;4973320;28;20304;-62
2023/07/02 06:37:44;;;;;;;18.90;7.45;;;;;;;;;;4973206;28;20307;-62
2023/07/02 06:40:09;;;;;;;18.92;7.57;;;;;;;;;;4973143;28;20242;-62
2023/07/02 06:42:36;;;;;;;21.85;7.57;;;;;;;;;;4973565;28;20222;-62
2023/07/02 06:45:01;;;;;;;17.77;7.22;;;;;;;;;;4972607;28;20214;-62
2023/07/02 06:47:27;;;;;;;25.50;8.27;;;;;;;;;;4973909;28;20577;-62
2023/07/02 06:49:52;;;;;;;21.33;8.20;;;;;;;;;;4956002;28;20795;-62
2023/07/02 06:52:17;;;;;;;20.17;7.20;;;;;;;;;;4972351;28;20218;-62
2023/07/02 06:54:43;;;;;;;22.13;7.72;;;;;;;;;;4973530;28;20583;-61
2023/07/02 06:57:08;;;;;;;21.48;8.02;;;;;;;;;;4955361;28;20217;-62
2023/07/02 06:59:33;;;;;;;16.35;7.25;;;;;;;;;;4972635;28;20216;-61
2023/07/02 07:01:59;;;;;;;16.17;7.07;;;;;;;;;;4973401;28;20289;-62
2023/07/02 07:04:24;;;;;;;17.15;7.45;;;;;;;;;;4971963;28;20454;-62
2023/07/02 07:06:50;;;;;;;17.10;6.95;;;;;;;;;;4973429;28;20222;-62
2023/07/02 07:09:15;;;;;;;17.98;7.38;;;;;;;;;;4972504;28;20214;-61
2023/07/02 07:11:40;;;;;;;15.23;7.28;;;;;;;;;;4972858;28;20280;-62
2023/07/02 07:14:06;;;;;;;17.67;7.03;;;;;;;;;;4971576;28;20571;-62
2023/07/02 07:16:31;;;;;;;19.52;7.20;;;;;;;;;;4973000;28;20677;-62
2023/07/02 07:18:57;;;;;;;20.23;7.32;;;;;;;;;;4972636;28;20229;-61
2023/07/02 07:21:22;;;;;;;17.50;7.60;;;;;;;;;;4972527;28;20214;-61
2023/07/02 07:23:48;;;;;;;16.65;6.97;;;;;;;;;;4972929;28;20214;-62
2023/07/02 07:26:13;;;;;;;17.13;6.80;;;;;;;;;;4971997;28;20205;-62
2023/07/02 07:28:38;;;;;;;20.63;7.18;;;;;;;;;;4972946;28;20217;-62
2023/07/02 07:31:04;;;;;;;17.67;7.07;;;;;;;;;;4972217;28;20316;-62
2023/07/02 07:33:29;;;;;;;19.08;7.00;;;;;;;;;;4972492;28;20677;-62
2023/07/02 07:35:54;;;;;;;17.95;6.80;;;;;;;;;;4972755;28;20649;-61
2023/07/02 07:38:20;;;;;;;18.13;6.72;;;;;;;;;;4972249;28;20304;-62
2023/07/02 07:40:45;;;;;;;18.67;6.63;;;;;;;;;;4972335;28;20644;-61
2023/07/02 07:43:11;;;;;;;17.83;6.82;;;;;;;;;;4972177;28;20218;-61
2023/07/02 07:45:37;;;;;;;15.75;7.07;;;;;;;;;;4972432;28;20212;-61
2023/07/02 07:48:03;;;;;;;20.77;7.65;;;;;;;;;;4971917;28;20218;-61
2023/07/02 07:50:28;;;;;;;16.23;6.75;;;;;;;;;;4972570;28;20205;-62
2023/07/02 07:52:53;;;;;;;16.05;6.70;;;;;;;;;;4972471;28;20650;-61
2023/07/02 07:55:19;;;;;;;18.50;6.85;;;;;;;;;;4971535;28;20228;-61
2023/07/02 07:57:44;;;;;;;15.13;5.95;;;;;;;;;;4972466;28;20210;-61
2023/07/02 08:00:09;;;;;;;16.58;6.88;;;;;;;;;;4971578;28;20260;-62
2023/07/02 08:02:35;;;;;;;21.05;6.70;;;;;;;;;;4971902;28;20576;-62
2023/07/02 08:05:00;;;;;;;17.83;6.70;;;;;;;;;;4971922;28;20588;-61
2023/07/02 08:07:25;;;;;;;16.60;6.65;;;;;;;;;;4972003;28;20205;-61
2023/07/02 08:09:51;;;;;;;16.80;6.93;;;;;;;;;;4971629;28;20591;-62
2023/07/02 08:12:16;;;;;;;19.15;6.50;;;;;;;;;;4971135;28;20237;-61
2023/07/02 08:14:41;;;;;;;15.27;6.25;;;;;;;;;;4971584;28;20237;-61
2023/07/02 08:17:07;;;;;;;16.27;5.90;;;;;;;;;;4971619;28;20260;-62
2023/07/02 08:19:32;;;;;;;15.02;6.78;;;;;;;;;;4971899;28;20244;-61
2023/07/02 08:21:57;;;;;;;14.75;5.90;;;;;;;;;;4971376;28;20217;-61
2023/07/02 08:24:23;;;;;;;17.55;5.82;;;;;;;;;;4971152;28;20210;-61
2023/07/02 08:26:49;;;;;;;16.02;6.50;;;;;;;;;;4971588;28;20812;-62
2023/07/02 08:29:14;;;;;;;16.05;5.80;;;;;;;;;;4970584;28;20297;-61
2023/07/02 08:31:40;;;;;;;15.35;6.05;;;;;;;;;;4971731;28;20333;-61
2023/07/02 08:34:05;;;;;;;17.77;6.18;;;;;;;;;;4971240;28;20300;-61
2023/07/02 08:36:30;;;;;;;13.07;5.85;;;;;;;;;;4971121;28;20202;-62
2023/07/02 08:38:56;;;;;;;15.68;6.13;;;;;;;;;;4971688;28;20231;-61
2023/07/02 08:41:23;;;;;;;12.75;5.60;;;;;;;;;;4970714;28;20213;-61
2023/07/02 08:43:48;;;;;;;13.60;5.50;;;;;;;;;;4970763;28;20687;-61
2023/07/02 08:46:15;;;;;;;12.77;4.53;;;;;;;;;;4970847;28;20214;-61
2023/07/02 08:48:40;;;;;;;11.18;4.78;;;;;;;;;;4971371;28;20210;-61
2023/07/02 08:51:05;;;;;;;15.77;5.07;;;;;;;;;;4970202;28;20214;-61
2023/07/02 08:53:33;;;;;;;12.77;5.32;;;;;;;;;;4971382;28;20218;-61
2023/07/02 08:55:59;;;;;;;11.35;5.18;;;;;;;;;;4970888;28;20679;-61
2023/07/02 08:58:24;;;;;;;13.98;5.20;;;;;;;;;;4970085;28;20300;-62
2023/07/02 09:01:07;;;;;;;16.83;5.13;;;;;;;;;;4971168;28;20222;-61
2023/07/02 09:03:33;;;;;;;10.95;5.03;;;;;;;;;;4971045;28;20246;-61
2023/07/02 09:05:58;;;;;;;11.63;5.60;;;;;;;;;;4953429;28;20740;-61
2023/07/02 09:08:24;;;;;;;13.80;5.50;;;;;;;;;;4970285;28;20315;-61
2023/07/02 09:10:49;;;;;;;12.52;5.03;;;;;;;;;;4971299;28;20304;-61
2023/07/02 09:13:15;;;;;;;15.52;5.93;;;;;;;;;;4970311;28;20358;-61
2023/07/02 09:15:40;;;;;;;13.65;6.10;;;;;;;;;;4970743;28;20218;-61
2023/07/02 09:18:20;;;;;;;11.23;5.65;;;;;;;;;;4970148;28;20214;-61
2023/07/02 09:20:46;;;;;;;13.02;5.72;;;;;;;;;;4971040;28;20245;-61
2023/07/02 09:23:11;;;;;;;15.35;4.85;;;;;;;;;;4970085;28;20677;-61
2023/07/02 09:25:37;;;;;;;10.73;5.60;;;;;;;;;;4970424;28;20427;-61
2023/07/02 09:28:04;;;;;;;12.63;5.55;;;;;;;;;;4970488;28;20229;-61
2023/07/02 09:30:29;;;;;;;12.10;5.65;;;;;;;;;;4970251;28;20256;-61
2023/07/02 09:32:56;;;;;;;13.98;5.43;;;;;;;;;;4959482;28;20681;-61
2023/07/02 09:35:21;;;;;;;11.52;5.25;;;;;;;;;;4931425;28;20593;-61
2023/07/02 09:37:48;;;;;;;11.82;4.97;;;;;;;;;;4946772;28;20256;-61
2023/07/02 09:40:14;;;;;;;12.15;5.05;;;;;;;;;;4959252;28;20407;-61
2023/07/02 09:42:40;;;;;;;11.23;5.10;;;;;;;;;;4950291;28;20602;-61
2023/07/02 09:45:07;;;;;;;12.93;5.30;;;;;;;;;;4963944;28;20230;-61
2023/07/02 09:47:32;;;;;;;10.57;5.05;;;;;;;;;;4964018;28;20316;-61
2023/07/02 09:49:59;;;;;;;10.65;5.07;;;;;;;;;;4959400;28;20530;-61
2023/07/02 09:52:24;;;;;;;11.07;4.40;;;;;;;;;;4945229;28;20230;-62
2023/07/02 09:54:50;;;;;;;16.35;5.13;;;;;;;;;;4945811;28;20218;-61
2023/07/02 09:57:15;;;;;;;9.70;4.30;;;;;;;;;;4956204;28;20557;-61
2023/07/02 09:59:40;;;;;;;11.05;4.60;;;;;;;;;;4953295;28;20210;-62
2023/07/02 10:02:07;;;;;;;10.75;3.83;;;;;;;;;;4952357;28;20430;-61
2023/07/02 10:04:42;;;;;;;11.32;4.05;;;;;;;;;;4946975;28;20217;-61
2023/07/02 10:07:08;;;;;;;9.50;4.10;;;;;;;;;;4958117;28;20238;-61
2023/07/02 10:09:35;;;;;;;9.82;3.90;;;;;;;;;;4945288;28;20262;-61
2023/07/02 10:12:00;;;;;;;10.32;4.30;;;;;;;;;;4963553;28;20301;-61
2023/07/02 10:14:26;;;;;;;9.55;3.92;;;;;;;;;;4964130;28;20218;-61
2023/07/02 10:16:51;;;;;;;9.57;4.10;;;;;;;;;;4945944;28;20218;-62
2023/07/02 10:19:16;;;;;;;9.45;4.53;;;;;;;;;;4939010;28;20749;-61
2023/07/02 10:21:42;;;;;;;10.55;4.47;;;;;;;;;;4956286;28;20214;-61
2023/07/02 10:24:09;;;;;;;9.80;4.10;;;;;;;;;;4957335;28;20218;-61
2023/07/02 10:26:34;;;;;;;8.10;4.03;;;;;;;;;;4962595;28;20216;-61
2023/07/02 10:28:59;;;;;;;8.90;4.15;;;;;;;;;;4964089;28;20225;-61
2023/07/02 10:31:25;;;;;;;7.68;3.53;;;;;;;;;;4964374;28;20239;-61
2023/07/02 10:33:51;;;;;;;8.40;4.30;;;;;;;;;;4967813;28;20821;-62
2023/07/02 10:36:18;;;;;;;7.05;3.72;;;;;;;;;;4969219;28;20221;-61
2023/07/02 10:38:43;;;;;;;9.05;3.80;;;;;;;;;;4970179;28;20210;-61
2023/07/02 10:41:08;;;;;;;8.88;3.55;;;;;;;;;;4964412;28;20226;-61
2023/07/02 10:43:34;;;;;;;11.10;3.63;;;;;;;;;;4950154;29;20215;-61
2023/07/02 10:46:00;;;;;;;9.80;4.00;;;;;;;;;;4950920;29;20215;-61
2023/07/02 10:48:26;;;;;;;7.40;3.42;;;;;;;;;;4951908;28;20298;-61
2023/07/02 10:50:51;;;;;;;8.50;3.78;;;;;;;;;;4953849;29;20313;-61
2023/07/02 10:53:17;;;;;;;9.35;3.83;;;;;;;;;;4953624;29;20264;-61
2023/07/02 10:55:42;;;;;;;8.48;3.80;;;;;;;;;;4953885;29;20269;-61
2023/07/02 10:58:08;;;;;;;8.10;3.75;;;;;;;;;;4953154;29;20211;-61
2023/07/02 11:00:45;;;;;;;8.75;3.88;;;;;;;;;;4965130;28;20245;-61
2023/07/02 11:03:18;;;;;;;8.18;3.70;;;;;;;;;;4972848;28;20304;-61
2023/07/02 11:05:43;;;;;;;10.23;3.70;;;;;;;;;;4972889;28;20210;-61
2023/07/02 11:08:08;;;;;;;9.75;3.95;;;;;;;;;;4972649;28;20218;-61
2023/07/02 11:10:34;;;;;;;9.25;4.03;;;;;;;;;;4972867;28;21235;-61
2023/07/02 11:13:09;;;;;;;7.95;3.65;;;;;;;;;;4973247;28;20237;-61
2023/07/02 11:15:35;;;;;;;10.90;3.63;;;;;;;;;;4972608;28;20574;-61
2023/07/02 11:18:16;;;;;;;8.85;3.90;;;;;;;;;;4972145;28;20623;-61
2023/07/02 11:20:42;;;;;;;8.32;4.00;;;;;;;;;;4973169;28;20205;-61
2023/07/02 11:23:18;;;;;;;8.50;3.67;;;;;;;;;;4972377;28;20233;-61
2023/07/02 11:25:53;;;;;;;7.93;3.83;;;;;;;;;;4972348;28;20213;-61
2023/07/02 11:28:18;;;;;;;10.52;3.88;;;;;;;;;;4972348;28;20278;-61
2023/07/02 11:30:45;;;;;;;7.18;3.63;;;;;;;;;;4972603;28;20237;-61
2023/07/02 11:33:10;;;;;;;8.38;3.78;;;;;;;;;;4975434;28;20689;-61
2023/07/02 11:35:36;;;;;;;11.57;3.92;;;;;;;;;;4975876;28;20212;-61
2023/07/02 11:38:01;;;;;;;9.18;3.67;;;;;;;;;;4978323;28;20920;-61
2023/07/02 11:40:27;;;;;;;7.45;3.28;;;;;;;;;;4978297;28;20684;-61
2023/07/02 11:42:52;;;;;;;7.60;3.67;;;;;;;;;;4974767;28;20345;-61
2023/07/02 11:45:17;;;;;;;9.73;3.47;;;;;;;;;;4991409;28;20210;-61
2023/07/02 11:47:43;;;;;;;7.05;3.45;;;;;;;;;;4991496;28;20727;-61
2023/07/02 11:50:08;;;;;;;7.88;3.70;;;;;;;;;;4991115;28;20210;-61
2023/07/02 11:52:33;;;;;;;9.95;3.80;;;;;;;;;;4991935;28;20259;-61
2023/07/02 11:54:59;;;;;;;8.57;3.60;;;;;;;;;;4991310;28;20232;-61
2023/07/02 11:57:24;;;;;;;8.18;3.63;;;;;;;;;;4990919;28;20574;-61
2023/07/02 11:59:49;;;;;;;6.85;3.42;;;;;;;;;;4990498;28;20653;-61
2023/07/02 12:02:15;;;;;;;6.95;3.35;;;;;;;;;;4991046;28;20225;-61
2023/07/02 12:04:40;;;;;;;9.35;3.35;;;;;;;;;;4991651;28;20314;-61
2023/07/02 12:07:05;;;;;;;8.15;3.42;;;;;;;;;;4990734;28;20224;-61
2023/07/02 12:09:31;;;;;;;8.80;3.75;;;;;;;;;;4980306;28;20214;-61
2023/07/02 12:11:56;;;;;;;8.75;3.72;;;;;;;;;;4971958;28;20238;-61
2023/07/02 12:14:21;;;;;;;7.07;3.45;;;;;;;;;;4971240;28;20214;-61
2023/07/02 12:16:47;;;;;;;8.63;3.28;;;;;;;;;;4972073;28;20689;-61
2023/07/02 12:19:13;;;;;;;10.38;3.40;;;;;;;;;;4971264;28;20264;-61
2023/07/02 12:21:39;;;;;;;9.30;3.25;;;;;;;;;;4971400;28;20242;-61
2023/07/02 12:24:08;;;;;;;8.27;3.58;;;;;;;;;;4971536;28;20268;-61
2023/07/02 12:26:34;;;;;;;8.07;3.60;;;;;;;;;;4971416;28;20210;-61
2023/07/02 12:28:59;;;;;;;7.85;3.05;;;;;;;;;;4971429;28;20210;-61
2023/07/02 12:31:25;;;;;;;10.20;3.50;;;;;;;;;;4971121;28;20611;-61
2023/07/02 12:33:50;;;;;;;7.82;3.38;;;;;;;;;;4971576;28;20244;-61
2023/07/02 12:36:16;;;;;;;9.82;3.60;;;;;;;;;;4970703;28;20233;-61
2023/07/02 12:38:41;;;;;;;6.70;2.95;;;;;;;;;;4971798;28;20692;-61
2023/07/02 12:41:06;;;;;;;7.45;3.25;;;;;;;;;;4970690;28;20210;-61
2023/07/02 12:43:32;;;;;;;7.47;3.70;;;;;;;;;;4970807;28;20706;-61
2023/07/02 12:45:57;;;;;;;8.23;3.53;;;;;;;;;;4971146;28;20210;-62
2023/07/02 12:48:22;;;;;;;7.97;3.65;;;;;;;;;;4970822;28;20213;-61
2023/07/02 12:50:53;;;;;;;9.25;3.65;;;;;;;;;;4970923;28;20566;-61
2023/07/02 12:53:18;;;;;;;9.15;3.30;;;;;;;;;;4970493;28;20309;-61
2023/07/02 12:55:43;;;;;;;10.35;3.63;;;;;;;;;;4971200;28;20651;-61
2023/07/02 12:58:09;;;;;;;9.80;3.60;;;;;;;;;;4970294;28;20641;-61
2023/07/02 13:00:34;;;;;;;7.93;3.70;;;;;;;;;;4971170;28;20233;-61
2023/07/02 13:02:59;;;;;;;7.95;3.60;;;;;;;;;;4971030;28;20218;-61
2023/07/02 13:05:25;;;;;;;7.72;3.65;;;;;;;;;;4970539;28;20206;-61
2023/07/02 13:07:50;;;;;;;6.95;3.25;;;;;;;;;;4970941;28;20293;-61
2023/07/02 13:10:15;;;;;;;7.60;3.45;;;;;;;;;;4969874;28;20222;-61
2023/07/02 13:12:41;;;;;;;8.80;4.07;;;;;;;;;;4969874;28;20218;-61
2023/07/02 13:15:06;;;;;;;7.43;3.40;;;;;;;;;;4970203;28;20205;-61
2023/07/02 13:17:32;;;;;;;7.90;3.35;;;;;;;;;;4970615;28;20249;-61
2023/07/02 13:19:57;;;;;;;9.23;3.38;;;;;;;;;;4970922;28;20531;-61
2023/07/02 13:22:23;;;;;;;6.82;3.38;;;;;;;;;;4970133;28;20225;-61
2023/07/02 13:24:48;;;;;;;6.45;3.17;;;;;;;;;;4970458;28;20206;-61
2023/07/02 13:27:14;;;;;;;8.57;3.30;;;;;;;;;;4970586;28;20717;-61
2023/07/02 13:29:39;;;;;;;8.30;3.55;;;;;;;;;;4970583;28;20690;-61
2023/07/02 13:32:05;;;;;;;7.93;3.60;;;;;;;;;;4969852;28;20264;-61
2023/07/02 13:34:30;;;;;;;9.63;3.67;;;;;;;;;;4970956;28;20209;-61
2023/07/02 13:36:55;;;;;;;7.65;3.58;;;;;;;;;;4970595;28;20217;-61
2023/07/02 13:39:21;;;;;;;6.63;3.40;;;;;;;;;;4969536;28;20224;-61
2023/07/02 13:41:46;;;;;;;9.88;3.42;;;;;;;;;;4970733;28;20213;-61
2023/07/02 13:44:11;;;;;;;7.50;3.17;;;;;;;;;;4969682;28;20237;-61
2023/07/02 13:46:37;;;;;;;8.57;3.60;;;;;;;;;;4970199;28;20213;-60
2023/07/02 13:49:02;;;;;;;8.98;3.40;;;;;;;;;;4970261;28;20286;-61
2023/07/02 13:51:27;;;;;;;7.65;3.30;;;;;;;;;;4970447;28;20633;-61
2023/07/02 13:53:53;;;;;;;8.23;3.60;;;;;;;;;;4970105;28;20221;-61
2023/07/02 13:56:18;;;;;;;7.28;3.47;;;;;;;;;;4970043;28;20212;-61
2023/07/02 13:58:55;;;;;;;10.05;3.40;;;;;;;;;;4970678;28;20230;-61
2023/07/02 14:01:21;;;;;;;9.38;3.65;;;;;;;;;;4969792;28;20221;-61
2023/07/02 14:03:46;;;;;;;8.38;3.50;;;;;;;;;;4970300;28;20225;-61
2023/07/02 14:06:12;;;;;;;10.13;4.03;;;;;;;;;;4970254;28;20302;-61
2023/07/02 14:08:37;;;;;;;10.55;3.40;;;;;;;;;;4969846;28;20210;-61
2023/07/02 14:11:02;;;;;;;10.93;3.72;;;;;;;;;;4969848;28;20640;-61
2023/07/02 14:13:28;;;;;;;9.75;3.72;;;;;;;;;;4969754;28;20253;-61
2023/07/02 14:15:53;;;;;;;8.63;3.70;;;;;;;;;;4970455;28;20225;-61
2023/07/02 14:18:18;;;;;;;11.10;3.50;;;;;;;;;;4969741;28;20224;-61
2023/07/02 14:20:44;;;;;;;8.05;3.42;;;;;;;;;;4969795;28;20240;-61
2023/07/02 14:23:09;;;;;;;9.35;3.80;;;;;;;;;;4971131;28;20352;-61
2023/07/02 14:25:34;;;;;;;8.95;4.18;;;;;;;;;;4973960;28;20221;-61